Airfield :
LOGIN :

Register | Disclaimer

   EN    FR    IT 

 










Legend :    VFR   Marginal VFR   IFR   Intensive IFR   Very Intensive IFR
Visi :
Ceiling :
>= 8 km
>= 3000ft
5 to 8 km
1000 to 3000 ft
1500m to 5 km
500 to 1000 ft
800 to 1500m
200 to 500 ft
< 800m
< 200 ft
Symbols :   Thunderstorms  Fog  Heavy snow  Heavy precipitations  Wind > 20 kt
SIGMETs :     Misc.  Thunderstorms  Icing  Turbulence  Mountain Waves  Volcanic Ashes






- Airport Elevation : 1 ft


EGCK - Caernarfon

CURRENT METAR :
  • 230720Z AUTO 18015KT 9999 -RA SCT014/// BKN033/// BKN043/// 10/08 Q1002

EXPIRED METARs :
  • 230650Z AUTO 18014KT 9999 -RA BKN032/// 10/08 Q1002
  • 230620Z AUTO 18014KT 9999 -RA BKN032/// 10/08 Q1003
  • 230550Z AUTO 19016KT 9999 -RA FEW026/// BKN033/// OVC049/// 10/08 Q1003
  • 230520Z AUTO 19015KT 9999 -RA BKN025/// OVC039/// 10/07 Q1003
  • 230450Z AUTO 18013KT 9999 BKN027/// OVC042/// 10/07 Q1004

TAF TAF EGCK
Valid from the 23 at 06:00 until the 23 at 15:00 UTC


230457Z 2306/2315 19014KT 9999 SCT030
TEMPO 2306/2311 23017G27KT 7000 RA BKN012
PROB40
TEMPO 2306/2310 3000 +RA BKN008
BECMG 2309/2312 28014KT
PROB30
TEMPO 2312/2315 8000 -SHRA



MET'MAP, your aeronautical weather chart ! - Copyright ORBIFLY December 2007 - Disclaimer

ORBIFLY MET'MAP TEAM :

Programming & Development : Alexandra Zaïnal
Concept & original design : Baudouin d'Aumeries
Assistance for programming : Marc-Olivier Méhu
Technical & hardware support : Manuel Goepfert

Contact : metmap@orbifly.com




SOURCES & CREDITS :

   NOAA